sensor_id;sensor_type;location;lat;lon;timestamp;pressure;altitude;pressure_sealevel;temperature;humidity
38289;BME280;24092;53.370;-6.588;2022-08-25T00:01:33;101256.68;;;10.61;100.00
38289;BME280;24092;53.370;-6.588;2022-08-25T00:04:05;101254.29;;;10.31;100.00
38289;BME280;24092;53.370;-6.588;2022-08-25T00:06:33;101254.15;;;10.64;100.00
38289;BME280;24092;53.370;-6.588;2022-08-25T00:09:00;101256.80;;;10.33;100.00
38289;BME280;24092;53.370;-6.588;2022-08-25T00:11:30;101254.09;;;10.02;100.00
38289;BME280;24092;53.370;-6.588;2022-08-25T00:14:00;101257.04;;;9.97;100.00
38289;BME280;24092;53.370;-6.588;2022-08-25T00:16:30;101258.05;;;9.28;100.00
38289;BME280;24092;53.370;-6.588;2022-08-25T00:18:59;101257.99;;;9.72;100.00
38289;BME280;24092;53.370;-6.588;2022-08-25T00:21:27;101258.63;;;10.06;100.00
38289;BME280;24092;53.370;-6.588;2022-08-25T00:23:54;101258.64;;;10.13;100.00
38289;BME280;24092;53.370;-6.588;2022-08-25T00:26:21;101257.71;;;9.53;100.00
38289;BME280;24092;53.370;-6.588;2022-08-25T00:28:48;101257.07;;;9.82;100.00
38289;BME280;24092;53.370;-6.588;2022-08-25T00:31:17;101258.40;;;9.84;100.00
38289;BME280;24092;53.370;-6.588;2022-08-25T00:33:46;101256.51;;;9.85;100.00
38289;BME280;24092;53.370;-6.588;2022-08-25T00:36:14;101254.15;;;9.85;100.00
38289;BME280;24092;53.370;-6.588;2022-08-25T00:38:43;101257.10;;;9.66;100.00
38289;BME280;24092;53.370;-6.588;2022-08-25T00:41:14;101258.49;;;9.90;100.00
38289;BME280;24092;53.370;-6.588;2022-08-25T00:43:46;101257.29;;;10.05;100.00
38289;BME280;24092;53.370;-6.588;2022-08-25T00:46:15;101258.99;;;10.41;100.00
38289;BME280;24092;53.370;-6.588;2022-08-25T00:48:45;101256.80;;;9.76;100.00
38289;BME280;24092;53.370;-6.588;2022-08-25T00:51:16;101255.78;;;10.24;100.00
38289;BME280;24092;53.370;-6.588;2022-08-25T00:53:46;101255.35;;;9.37;100.00
38289;BME280;24092;53.370;-6.588;2022-08-25T00:56:14;101258.65;;;9.42;100.00
38289;BME280;24092;53.370;-6.588;2022-08-25T00:58:42;101261.41;;;9.42;100.00
38289;BME280;24092;53.370;-6.588;2022-08-25T01:01:10;101261.72;;;9.97;100.00
38289;BME280;24092;53.370;-6.588;2022-08-25T01:03:37;101264.07;;;8.96;100.00
38289;BME280;24092;53.370;-6.588;2022-08-25T01:06:04;101264.89;;;9.85;100.00
38289;BME280;24092;53.370;-6.588;2022-08-25T01:08:32;101266.22;;;9.46;100.00
38289;BME280;24092;53.370;-6.588;2022-08-25T01:11:02;101269.20;;;9.93;100.00
38289;BME280;24092;53.370;-6.588;2022-08-25T01:13:33;101266.94;;;9.39;100.00
38289;BME280;24092;53.370;-6.588;2022-08-25T01:16:01;101270.83;;;9.66;100.00
38289;BME280;24092;53.370;-6.588;2022-08-25T01:18:41;101271.28;;;9.56;100.00
38289;BME280;24092;53.370;-6.588;2022-08-25T01:21:09;101269.92;;;9.75;100.00
38289;BME280;24092;53.370;-6.588;2022-08-25T01:23:37;101270.87;;;9.61;100.00
38289;BME280;24092;53.370;-6.588;2022-08-25T01:26:07;101272.34;;;9.49;100.00
38289;BME280;24092;53.370;-6.588;2022-08-25T01:28:36;101274.02;;;9.17;100.00
38289;BME280;24092;53.370;-6.588;2022-08-25T01:31:04;101274.08;;;9.36;100.00
38289;BME280;24092;53.370;-6.588;2022-08-25T01:33:31;101276.69;;;9.45;100.00
38289;BME280;24092;53.370;-6.588;2022-08-25T01:35:58;101278.87;;;9.09;100.00
38289;BME280;24092;53.370;-6.588;2022-08-25T01:38:25;101278.50;;;9.37;100.00
38289;BME280;24092;53.370;-6.588;2022-08-25T01:40:52;101281.07;;;9.46;100.00
38289;BME280;24092;53.370;-6.588;2022-08-25T01:43:29;101283.61;;;9.69;100.00
38289;BME280;24092;53.370;-6.588;2022-08-25T01:45:57;101288.90;;;9.55;100.00
38289;BME280;24092;53.370;-6.588;2022-08-25T01:48:24;101290.25;;;9.19;100.00
38289;BME280;24092;53.370;-6.588;2022-08-25T01:50:51;101289.25;;;9.49;100.00
38289;BME280;24092;53.370;-6.588;2022-08-25T01:53:22;101285.75;;;9.29;100.00
38289;BME280;24092;53.370;-6.588;2022-08-25T01:55:50;101284.21;;;9.48;100.00
38289;BME280;24092;53.370;-6.588;2022-08-25T01:58:17;101285.48;;;9.42;100.00
38289;BME280;24092;53.370;-6.588;2022-08-25T02:00:45;101283.18;;;8.54;100.00
38289;BME280;24092;53.370;-6.588;2022-08-25T02:03:13;101286.85;;;9.11;100.00
38289;BME280;24092;53.370;-6.588;2022-08-25T02:05:40;101291.50;;;9.10;100.00
38289;BME280;24092;53.370;-6.588;2022-08-25T02:08:07;101291.40;;;9.25;100.00
38289;BME280;24092;53.370;-6.588;2022-08-25T02:10:34;101295.41;;;9.51;100.00
38289;BME280;24092;53.370;-6.588;2022-08-25T02:13:02;101292.69;;;9.34;100.00
38289;BME280;24092;53.370;-6.588;2022-08-25T02:15:30;101297.42;;;9.17;100.00
38289;BME280;24092;53.370;-6.588;2022-08-25T02:17:58;101298.88;;;9.38;100.00
38289;BME280;24092;53.370;-6.588;2022-08-25T02:20:25;101302.18;;;9.53;100.00
38289;BME280;24092;53.370;-6.588;2022-08-25T02:22:53;101302.05;;;9.00;100.00
38289;BME280;24092;53.370;-6.588;2022-08-25T02:25:20;101303.70;;;9.49;100.00
38289;BME280;24092;53.370;-6.588;2022-08-25T02:27:47;101302.29;;;8.75;100.00
38289;BME280;24092;53.370;-6.588;2022-08-25T02:30:16;101299.81;;;9.35;100.00
38289;BME280;24092;53.370;-6.588;2022-08-25T02:32:43;101302.40;;;9.68;100.00
38289;BME280;24092;53.370;-6.588;2022-08-25T02:35:11;101296.13;;;9.38;100.00
38289;BME280;24092;53.370;-6.588;2022-08-25T02:37:38;101296.90;;;9.34;100.00
38289;BME280;24092;53.370;-6.588;2022-08-25T02:40:07;101295.98;;;9.09;100.00
38289;BME280;24092;53.370;-6.588;2022-08-25T02:42:34;101298.84;;;9.19;100.00
38289;BME280;24092;53.370;-6.588;2022-08-25T02:45:01;101304.96;;;8.96;100.00
38289;BME280;24092;53.370;-6.588;2022-08-25T02:47:29;101306.69;;;8.86;100.00
38289;BME280;24092;53.370;-6.588;2022-08-25T02:49:56;101310.53;;;8.84;100.00
38289;BME280;24092;53.370;-6.588;2022-08-25T02:52:23;101309.76;;;8.99;100.00
38289;BME280;24092;53.370;-6.588;2022-08-25T02:54:51;101311.58;;;9.18;100.00
38289;BME280;24092;53.370;-6.588;2022-08-25T02:57:18;101310.93;;;9.15;100.00
38289;BME280;24092;53.370;-6.588;2022-08-25T02:59:45;101318.28;;;8.83;100.00
38289;BME280;24092;53.370;-6.588;2022-08-25T03:02:12;101316.82;;;8.86;100.00
38289;BME280;24092;53.370;-6.588;2022-08-25T03:04:39;101316.07;;;8.75;100.00
38289;BME280;24092;53.370;-6.588;2022-08-25T03:07:06;101319.34;;;8.51;100.00
38289;BME280;24092;53.370;-6.588;2022-08-25T03:09:34;101320.92;;;8.78;100.00
38289;BME280;24092;53.370;-6.588;2022-08-25T03:12:03;101317.49;;;8.22;100.00
38289;BME280;24092;53.370;-6.588;2022-08-25T03:14:30;101318.76;;;8.13;100.00
38289;BME280;24092;53.370;-6.588;2022-08-25T03:16:57;101317.81;;;7.92;100.00
38289;BME280;24092;53.370;-6.588;2022-08-25T03:22:57;101319.90;;;7.65;100.00
38289;BME280;24092;53.370;-6.588;2022-08-25T03:25:24;101322.88;;;8.32;100.00
38289;BME280;24092;53.370;-6.588;2022-08-25T03:27:52;101319.31;;;7.91;100.00
38289;BME280;24092;53.370;-6.588;2022-08-25T03:30:19;101320.34;;;8.21;100.00
38289;BME280;24092;53.370;-6.588;2022-08-25T03:32:46;101318.50;;;8.73;100.00
38289;BME280;24092;53.370;-6.588;2022-08-25T03:35:14;101317.29;;;8.23;100.00
38289;BME280;24092;53.370;-6.588;2022-08-25T03:37:41;101317.98;;;8.70;100.00
38289;BME280;24092;53.370;-6.588;2022-08-25T03:40:12;101315.13;;;8.74;100.00
38289;BME280;24092;53.370;-6.588;2022-08-25T03:42:40;101314.28;;;9.21;100.00
38289;BME280;24092;53.370;-6.588;2022-08-25T03:45:08;101315.98;;;8.52;100.00
38289;BME280;24092;53.370;-6.588;2022-08-25T03:47:36;101314.30;;;8.69;100.00
38289;BME280;24092;53.370;-6.588;2022-08-25T03:50:03;101316.02;;;8.36;100.00
38289;BME280;24092;53.370;-6.588;2022-08-25T03:52:31;101313.51;;;8.71;100.00
38289;BME280;24092;53.370;-6.588;2022-08-25T03:54:59;101314.40;;;8.56;100.00
38289;BME280;24092;53.370;-6.588;2022-08-25T03:57:27;101316.84;;;8.34;100.00
38289;BME280;24092;53.370;-6.588;2022-08-25T03:59:54;101317.51;;;8.34;100.00
38289;BME280;24092;53.370;-6.588;2022-08-25T04:02:21;101321.12;;;8.85;100.00
38289;BME280;24092;53.370;-6.588;2022-08-25T04:04:48;101318.05;;;8.33;100.00
38289;BME280;24092;53.370;-6.588;2022-08-25T04:07:15;101313.55;;;8.66;100.00
38289;BME280;24092;53.370;-6.588;2022-08-25T04:09:42;101315.45;;;8.71;100.00
38289;BME280;24092;53.370;-6.588;2022-08-25T04:12:09;101315.56;;;8.43;100.00
38289;BME280;24092;53.370;-6.588;2022-08-25T04:14:37;101314.23;;;8.29;100.00
38289;BME280;24092;53.370;-6.588;2022-08-25T04:17:04;101312.39;;;8.20;100.00
38289;BME280;24092;53.370;-6.588;2022-08-25T04:19:31;101310.95;;;8.50;100.00
38289;BME280;24092;53.370;-6.588;2022-08-25T04:21:58;101309.30;;;8.14;100.00
38289;BME280;24092;53.370;-6.588;2022-08-25T04:24:25;101305.95;;;8.65;100.00
38289;BME280;24092;53.370;-6.588;2022-08-25T04:26:52;101305.55;;;8.51;100.00
38289;BME280;24092;53.370;-6.588;2022-08-25T04:29:21;101305.45;;;9.14;100.00
38289;BME280;24092;53.370;-6.588;2022-08-25T04:31:49;101305.55;;;8.53;100.00
38289;BME280;24092;53.370;-6.588;2022-08-25T04:34:16;101307.99;;;8.82;100.00
38289;BME280;24092;53.370;-6.588;2022-08-25T04:36:44;101310.70;;;8.59;100.00
38289;BME280;24092;53.370;-6.588;2022-08-25T04:39:11;101312.46;;;8.38;100.00
38289;BME280;24092;53.370;-6.588;2022-08-25T04:41:38;101312.50;;;8.15;100.00
38289;BME280;24092;53.370;-6.588;2022-08-25T04:44:05;101309.72;;;8.48;100.00
38289;BME280;24092;53.370;-6.588;2022-08-25T04:46:33;101309.09;;;8.43;100.00
38289;BME280;24092;53.370;-6.588;2022-08-25T04:49:02;101306.22;;;8.40;100.00
38289;BME280;24092;53.370;-6.588;2022-08-25T04:51:31;101308.24;;;8.67;100.00
38289;BME280;24092;53.370;-6.588;2022-08-25T04:54:01;101305.02;;;8.58;100.00
38289;BME280;24092;53.370;-6.588;2022-08-25T04:56:28;101299.20;;;8.38;100.00
38289;BME280;24092;53.370;-6.588;2022-08-25T04:58:55;101300.92;;;8.38;100.00
38289;BME280;24092;53.370;-6.588;2022-08-25T05:01:24;101300.89;;;8.90;100.00
38289;BME280;24092;53.370;-6.588;2022-08-25T05:03:53;101297.73;;;8.41;100.00
38289;BME280;24092;53.370;-6.588;2022-08-25T05:06:21;101298.87;;;7.97;100.00
38289;BME280;24092;53.370;-6.588;2022-08-25T05:08:48;101297.97;;;7.78;100.00
38289;BME280;24092;53.370;-6.588;2022-08-25T05:11:17;101301.07;;;7.94;100.00
38289;BME280;24092;53.370;-6.588;2022-08-25T05:13:45;101302.02;;;7.89;100.00
38289;BME280;24092;53.370;-6.588;2022-08-25T05:16:15;101302.33;;;8.04;100.00
38289;BME280;24092;53.370;-6.588;2022-08-25T05:18:43;101307.77;;;8.76;100.00
38289;BME280;24092;53.370;-6.588;2022-08-25T05:21:12;101308.14;;;8.25;100.00
38289;BME280;24092;53.370;-6.588;2022-08-25T05:23:40;101304.07;;;8.47;100.00
38289;BME280;24092;53.370;-6.588;2022-08-25T05:26:10;101303.22;;;8.49;100.00
38289;BME280;24092;53.370;-6.588;2022-08-25T05:28:40;101300.81;;;7.76;100.00
38289;BME280;24092;53.370;-6.588;2022-08-25T05:31:08;101300.42;;;8.11;100.00
38289;BME280;24092;53.370;-6.588;2022-08-25T05:33:36;101304.29;;;8.08;100.00
38289;BME280;24092;53.370;-6.588;2022-08-25T05:36:05;101307.04;;;8.11;100.00
38289;BME280;24092;53.370;-6.588;2022-08-25T05:38:33;101309.30;;;8.11;100.00
38289;BME280;24092;53.370;-6.588;2022-08-25T05:41:02;101310.38;;;7.76;100.00
38289;BME280;24092;53.370;-6.588;2022-08-25T05:43:31;101313.17;;;8.01;100.00
38289;BME280;24092;53.370;-6.588;2022-08-25T05:45:59;101310.45;;;7.31;100.00
38289;BME280;24092;53.370;-6.588;2022-08-25T05:48:27;101309.04;;;7.73;100.00
38289;BME280;24092;53.370;-6.588;2022-08-25T05:50:56;101307.84;;;7.83;100.00
38289;BME280;24092;53.370;-6.588;2022-08-25T05:53:24;101306.08;;;7.84;100.00
38289;BME280;24092;53.370;-6.588;2022-08-25T05:55:52;101314.66;;;7.42;100.00
38289;BME280;24092;53.370;-6.588;2022-08-25T05:58:21;101311.29;;;7.65;100.00
38289;BME280;24092;53.370;-6.588;2022-08-25T06:00:49;101318.64;;;7.65;100.00
38289;BME280;24092;53.370;-6.588;2022-08-25T06:03:17;101320.55;;;7.60;100.00
38289;BME280;24092;53.370;-6.588;2022-08-25T06:05:44;101319.77;;;7.93;100.00
38289;BME280;24092;53.370;-6.588;2022-08-25T06:08:10;101321.82;;;8.16;100.00
38289;BME280;24092;53.370;-6.588;2022-08-25T06:10:37;101321.30;;;7.74;100.00
38289;BME280;24092;53.370;-6.588;2022-08-25T06:13:04;101321.44;;;7.86;100.00
38289;BME280;24092;53.370;-6.588;2022-08-25T06:15:32;101321.12;;;7.85;100.00
38289;BME280;24092;53.370;-6.588;2022-08-25T06:17:59;101323.34;;;7.78;100.00
38289;BME280;24092;53.370;-6.588;2022-08-25T06:20:29;101326.14;;;8.01;100.00
38289;BME280;24092;53.370;-6.588;2022-08-25T06:22:57;101324.84;;;7.65;100.00
38289;BME280;24092;53.370;-6.588;2022-08-25T06:25:25;101329.56;;;7.96;100.00
38289;BME280;24092;53.370;-6.588;2022-08-25T06:27:54;101331.85;;;7.81;100.00
38289;BME280;24092;53.370;-6.588;2022-08-25T06:30:23;101331.85;;;7.99;100.00
38289;BME280;24092;53.370;-6.588;2022-08-25T06:32:50;101336.42;;;8.01;100.00
38289;BME280;24092;53.370;-6.588;2022-08-25T06:35:18;101339.71;;;7.58;100.00
38289;BME280;24092;53.370;-6.588;2022-08-25T06:37:46;101340.42;;;7.62;100.00
38289;BME280;24092;53.370;-6.588;2022-08-25T06:40:15;101341.72;;;7.68;100.00
38289;BME280;24092;53.370;-6.588;2022-08-25T06:42:45;101345.17;;;7.93;100.00
38289;BME280;24092;53.370;-6.588;2022-08-25T06:45:12;101343.91;;;7.75;100.00
38289;BME280;24092;53.370;-6.588;2022-08-25T06:47:39;101346.48;;;7.81;100.00
38289;BME280;24092;53.370;-6.588;2022-08-25T06:50:07;101344.35;;;7.14;100.00
38289;BME280;24092;53.370;-6.588;2022-08-25T06:52:34;101349.66;;;7.46;100.00
38289;BME280;24092;53.370;-6.588;2022-08-25T06:55:01;101346.21;;;7.90;100.00
38289;BME280;24092;53.370;-6.588;2022-08-25T06:57:29;101350.86;;;9.06;100.00
38289;BME280;24092;53.370;-6.588;2022-08-25T06:59:57;101350.23;;;8.03;100.00
38289;BME280;24092;53.370;-6.588;2022-08-25T07:02:24;101353.32;;;9.16;100.00
38289;BME280;24092;53.370;-6.588;2022-08-25T07:04:51;101353.77;;;8.51;100.00
38289;BME280;24092;53.370;-6.588;2022-08-25T07:07:19;101355.27;;;8.75;100.00
38289;BME280;24092;53.370;-6.588;2022-08-25T07:09:46;101355.86;;;8.91;100.00
38289;BME280;24092;53.370;-6.588;2022-08-25T07:12:13;101356.21;;;9.07;100.00
38289;BME280;24092;53.370;-6.588;2022-08-25T07:14:40;101357.53;;;9.37;100.00
38289;BME280;24092;53.370;-6.588;2022-08-25T07:17:07;101359.22;;;9.50;100.00
38289;BME280;24092;53.370;-6.588;2022-08-25T07:19:35;101356.72;;;9.91;100.00
38289;BME280;24092;53.370;-6.588;2022-08-25T07:22:02;101363.07;;;9.47;100.00
38289;BME280;24092;53.370;-6.588;2022-08-25T07:24:29;101364.59;;;8.96;100.00
38289;BME280;24092;53.370;-6.588;2022-08-25T07:26:56;101362.34;;;9.67;100.00
38289;BME280;24092;53.370;-6.588;2022-08-25T07:29:26;101360.97;;;9.62;100.00
38289;BME280;24092;53.370;-6.588;2022-08-25T07:31:53;101362.12;;;9.75;100.00
38289;BME280;24092;53.370;-6.588;2022-08-25T07:34:20;101365.24;;;10.52;100.00
38289;BME280;24092;53.370;-6.588;2022-08-25T07:36:47;101367.47;;;10.70;100.00
38289;BME280;24092;53.370;-6.588;2022-08-25T07:39:14;101367.66;;;10.77;100.00
38289;BME280;24092;53.370;-6.588;2022-08-25T07:41:43;101369.87;;;11.16;100.00
38289;BME280;24092;53.370;-6.588;2022-08-25T07:44:11;101371.22;;;11.05;100.00
38289;BME280;24092;53.370;-6.588;2022-08-25T07:46:39;101372.95;;;11.28;100.00
38289;BME280;24092;53.370;-6.588;2022-08-25T07:49:06;101375.60;;;11.29;100.00
38289;BME280;24092;53.370;-6.588;2022-08-25T07:51:34;101374.49;;;11.13;100.00
38289;BME280;24092;53.370;-6.588;2022-08-25T07:54:02;101374.85;;;11.43;100.00
38289;BME280;24092;53.370;-6.588;2022-08-25T07:56:30;101380.21;;;11.81;100.00
38289;BME280;24092;53.370;-6.588;2022-08-25T07:58:57;101381.24;;;11.95;100.00
38289;BME280;24092;53.370;-6.588;2022-08-25T08:01:24;101382.40;;;11.65;100.00
38289;BME280;24092;53.370;-6.588;2022-08-25T08:03:51;101381.91;;;11.97;100.00
38289;BME280;24092;53.370;-6.588;2022-08-25T08:06:20;101385.60;;;12.18;100.00
38289;BME280;24092;53.370;-6.588;2022-08-25T08:08:50;101380.36;;;12.13;100.00
38289;BME280;24092;53.370;-6.588;2022-08-25T08:11:19;101383.53;;;12.35;100.00
38289;BME280;24092;53.370;-6.588;2022-08-25T08:13:47;101386.35;;;12.23;100.00
38289;BME280;24092;53.370;-6.588;2022-08-25T08:16:17;101388.29;;;12.41;100.00
38289;BME280;24092;53.370;-6.588;2022-08-25T08:18:45;101390.26;;;11.83;100.00
38289;BME280;24092;53.370;-6.588;2022-08-25T08:21:14;101397.81;;;11.03;100.00
38289;BME280;24092;53.370;-6.588;2022-08-25T08:23:42;101398.09;;;11.85;100.00
38289;BME280;24092;53.370;-6.588;2022-08-25T08:26:09;101399.14;;;11.82;100.00
38289;BME280;24092;53.370;-6.588;2022-08-25T08:28:37;101403.04;;;12.24;100.00
38289;BME280;24092;53.370;-6.588;2022-08-25T08:31:04;101401.89;;;12.50;100.00
38289;BME280;24092;53.370;-6.588;2022-08-25T08:33:32;101403.47;;;11.85;100.00
38289;BME280;24092;53.370;-6.588;2022-08-25T08:36:02;101405.70;;;12.84;100.00
38289;BME280;24092;53.370;-6.588;2022-08-25T08:38:30;101405.83;;;13.00;100.00
38289;BME280;24092;53.370;-6.588;2022-08-25T08:41:04;101403.95;;;13.13;100.00
38289;BME280;24092;53.370;-6.588;2022-08-25T08:43:35;101409.45;;;13.29;100.00
38289;BME280;24092;53.370;-6.588;2022-08-25T08:46:03;101402.21;;;13.91;100.00
38289;BME280;24092;53.370;-6.588;2022-08-25T08:48:55;101401.76;;;14.98;100.00
38289;BME280;24092;53.370;-6.588;2022-08-25T08:51:29;101404.04;;;12.93;100.00
38289;BME280;24092;53.370;-6.588;2022-08-25T08:54:01;101405.43;;;12.73;100.00
38289;BME280;24092;53.370;-6.588;2022-08-25T08:56:37;101403.71;;;13.26;100.00
38289;BME280;24092;53.370;-6.588;2022-08-25T08:59:10;101400.72;;;13.48;100.00
38289;BME280;24092;53.370;-6.588;2022-08-25T09:01:46;101395.32;;;13.90;100.00
38289;BME280;24092;53.370;-6.588;2022-08-25T09:04:18;101392.43;;;14.07;100.00
38289;BME280;24092;53.370;-6.588;2022-08-25T09:06:48;101392.98;;;12.82;100.00
38289;BME280;24092;53.370;-6.588;2022-08-25T09:09:22;101390.07;;;13.06;100.00
38289;BME280;24092;53.370;-6.588;2022-08-25T09:11:56;101387.81;;;12.73;100.00
38289;BME280;24092;53.370;-6.588;2022-08-25T09:14:38;101392.37;;;12.79;100.00
38289;BME280;24092;53.370;-6.588;2022-08-25T09:17:16;101388.21;;;13.53;100.00
38289;BME280;24092;53.370;-6.588;2022-08-25T09:20:06;101387.41;;;14.13;100.00
38289;BME280;24092;53.370;-6.588;2022-08-25T09:22:41;101383.28;;;14.45;100.00
38289;BME280;24092;53.370;-6.588;2022-08-25T09:25:18;101381.91;;;15.04;100.00
38289;BME280;24092;53.370;-6.588;2022-08-25T09:27:54;101388.05;;;13.52;100.00
38289;BME280;24092;53.370;-6.588;2022-08-25T09:30:24;101384.36;;;14.02;100.00
38289;BME280;24092;53.370;-6.588;2022-08-25T09:32:54;101385.39;;;14.00;100.00
38289;BME280;24092;53.370;-6.588;2022-08-25T09:35:23;101392.21;;;13.39;100.00
38289;BME280;24092;53.370;-6.588;2022-08-25T09:37:56;101389.62;;;12.64;100.00
38289;BME280;24092;53.370;-6.588;2022-08-25T09:40:24;101390.90;;;14.42;100.00
38289;BME280;24092;53.370;-6.588;2022-08-25T09:42:54;101393.39;;;13.06;100.00
38289;BME280;24092;53.370;-6.588;2022-08-25T09:45:35;101392.68;;;12.48;100.00
38289;BME280;24092;53.370;-6.588;2022-08-25T09:48:24;101390.40;;;14.18;100.00
38289;BME280;24092;53.370;-6.588;2022-08-25T09:50:57;101384.29;;;13.86;100.00
38289;BME280;24092;53.370;-6.588;2022-08-25T09:53:27;101384.32;;;13.86;100.00
38289;BME280;24092;53.370;-6.588;2022-08-25T09:55:59;101384.24;;;13.74;100.00
38289;BME280;24092;53.370;-6.588;2022-08-25T09:58:27;101383.61;;;13.86;100.00
38289;BME280;24092;53.370;-6.588;2022-08-25T10:01:06;101385.88;;;13.38;100.00
38289;BME280;24092;53.370;-6.588;2022-08-25T10:03:37;101385.29;;;12.97;100.00
38289;BME280;24092;53.370;-6.588;2022-08-25T10:06:18;101388.84;;;13.53;100.00
38289;BME280;24092;53.370;-6.588;2022-08-25T10:08:54;101384.82;;;13.23;100.00
38289;BME280;24092;53.370;-6.588;2022-08-25T10:11:34;101383.12;;;13.86;100.00
38289;BME280;24092;53.370;-6.588;2022-08-25T10:14:05;101384.38;;;13.82;100.00
38289;BME280;24092;53.370;-6.588;2022-08-25T10:16:33;101380.33;;;13.93;100.00
38289;BME280;24092;53.370;-6.588;2022-08-25T10:19:04;101377.79;;;14.11;100.00
38289;BME280;24092;53.370;-6.588;2022-08-25T10:21:32;101379.46;;;14.70;100.00
38289;BME280;24092;53.370;-6.588;2022-08-25T10:24:00;101375.23;;;13.65;100.00
38289;BME280;24092;53.370;-6.588;2022-08-25T10:26:35;101371.52;;;13.92;100.00
38289;BME280;24092;53.370;-6.588;2022-08-25T10:29:13;101369.04;;;15.14;100.00
38289;BME280;24092;53.370;-6.588;2022-08-25T10:31:47;101365.43;;;15.08;100.00
38289;BME280;24092;53.370;-6.588;2022-08-25T10:34:26;101365.63;;;13.87;100.00
38289;BME280;24092;53.370;-6.588;2022-08-25T10:37:02;101361.03;;;14.04;100.00
38289;BME280;24092;53.370;-6.588;2022-08-25T10:39:39;101366.85;;;13.75;100.00
38289;BME280;24092;53.370;-6.588;2022-08-25T10:42:18;101359.42;;;13.57;100.00
38289;BME280;24092;53.370;-6.588;2022-08-25T10:44:56;101354.52;;;15.00;100.00
38289;BME280;24092;53.370;-6.588;2022-08-25T10:47:46;101356.47;;;15.28;100.00
38289;BME280;24092;53.370;-6.588;2022-08-25T10:50:24;101351.12;;;14.48;100.00
38289;BME280;24092;53.370;-6.588;2022-08-25T10:53:05;101349.69;;;14.86;100.00
38289;BME280;24092;53.370;-6.588;2022-08-25T10:55:42;101344.60;;;13.41;100.00
38289;BME280;24092;53.370;-6.588;2022-08-25T10:58:21;101342.17;;;14.85;100.00
38289;BME280;24092;53.370;-6.588;2022-08-25T11:00:57;101338.86;;;14.61;100.00
38289;BME280;24092;53.370;-6.588;2022-08-25T11:03:39;101335.79;;;14.83;100.00
38289;BME280;24092;53.370;-6.588;2022-08-25T11:06:14;101330.90;;;14.19;100.00
38289;BME280;24092;53.370;-6.588;2022-08-25T11:08:47;101335.44;;;14.11;100.00
38289;BME280;24092;53.370;-6.588;2022-08-25T11:11:22;101337.79;;;14.06;100.00
38289;BME280;24092;53.370;-6.588;2022-08-25T11:13:53;101337.48;;;13.99;100.00
38289;BME280;24092;53.370;-6.588;2022-08-25T11:16:32;101335.13;;;13.79;100.00
38289;BME280;24092;53.370;-6.588;2022-08-25T11:19:06;101327.03;;;13.83;100.00
38289;BME280;24092;53.370;-6.588;2022-08-25T11:21:43;101330.24;;;14.04;100.00
38289;BME280;24092;53.370;-6.588;2022-08-25T11:24:25;101332.08;;;14.97;100.00
38289;BME280;24092;53.370;-6.588;2022-08-25T11:26:56;101327.97;;;14.66;100.00
38289;BME280;24092;53.370;-6.588;2022-08-25T11:29:28;101324.41;;;15.31;97.18
38289;BME280;24092;53.370;-6.588;2022-08-25T11:31:58;101324.39;;;15.40;96.72
38289;BME280;24092;53.370;-6.588;2022-08-25T11:34:30;101327.05;;;15.35;98.18
38289;BME280;24092;53.370;-6.588;2022-08-25T11:37:00;101325.37;;;16.13;93.42
38289;BME280;24092;53.370;-6.588;2022-08-25T11:39:41;101326.38;;;14.69;96.41
38289;BME280;24092;53.370;-6.588;2022-08-25T11:42:19;101324.92;;;14.08;98.18
38289;BME280;24092;53.370;-6.588;2022-08-25T11:45:00;101320.96;;;13.80;100.00
38289;BME280;24092;53.370;-6.588;2022-08-25T11:47:40;101323.24;;;13.31;100.00
38289;BME280;24092;53.370;-6.588;2022-08-25T11:50:25;101321.98;;;13.78;100.00
38289;BME280;24092;53.370;-6.588;2022-08-25T11:52:55;101321.33;;;13.81;100.00
38289;BME280;24092;53.370;-6.588;2022-08-25T11:55:31;101322.63;;;14.23;100.00
38289;BME280;24092;53.370;-6.588;2022-08-25T11:58:22;101319.09;;;14.67;99.19
38289;BME280;24092;53.370;-6.588;2022-08-25T12:00:54;101318.18;;;15.30;97.86
38289;BME280;24092;53.370;-6.588;2022-08-25T12:04:09;101322.64;;;14.94;96.82
38289;BME280;24092;53.370;-6.588;2022-08-25T12:07:16;101326.28;;;14.70;97.56
38289;BME280;24092;53.370;-6.588;2022-08-25T12:10:18;101328.57;;;15.13;98.70
38289;BME280;24092;53.370;-6.588;2022-08-25T12:13:05;101327.73;;;14.10;100.00
38289;BME280;24092;53.370;-6.588;2022-08-25T12:15:59;101326.41;;;13.50;100.00
38289;BME280;24092;53.370;-6.588;2022-08-25T12:18:44;101326.79;;;13.14;100.00
38289;BME280;24092;53.370;-6.588;2022-08-25T12:21:15;101325.93;;;13.18;100.00
38289;BME280;24092;53.370;-6.588;2022-08-25T12:24:02;101316.70;;;14.09;100.00
38289;BME280;24092;53.370;-6.588;2022-08-25T12:26:39;101319.54;;;13.99;100.00
38289;BME280;24092;53.370;-6.588;2022-08-25T12:29:11;101317.87;;;14.47;100.00
38289;BME280;24092;53.370;-6.588;2022-08-25T12:32:05;101314.14;;;14.99;100.00
38289;BME280;24092;53.370;-6.588;2022-08-25T12:34:50;101319.81;;;14.58;100.00
38289;BME280;24092;53.370;-6.588;2022-08-25T12:37:22;101316.84;;;13.81;100.00
38289;BME280;24092;53.370;-6.588;2022-08-25T12:39:56;101314.62;;;13.30;100.00
38289;BME280;24092;53.370;-6.588;2022-08-25T12:42:29;101313.57;;;13.55;100.00
38289;BME280;24092;53.370;-6.588;2022-08-25T12:45:12;101310.60;;;13.91;100.00
38289;BME280;24092;53.370;-6.588;2022-08-25T12:47:41;101306.24;;;13.54;100.00
38289;BME280;24092;53.370;-6.588;2022-08-25T12:50:35;101305.67;;;14.64;100.00
38289;BME280;24092;53.370;-6.588;2022-08-25T12:53:13;101302.28;;;14.92;98.61
38289;BME280;24092;53.370;-6.588;2022-08-25T12:55:47;101303.49;;;14.52;97.94
38289;BME280;24092;53.370;-6.588;2022-08-25T12:58:16;101300.93;;;15.21;97.93